sensor_id;sensor_type;location;lat;lon;timestamp;pressure;altitude;pressure_sealevel;temperature;humidity
74552;BME280;63025;55.472;38.432;2023-03-14T00:01:57;100194.16;;;-5.80;74.53
74552;BME280;63025;55.472;38.432;2023-03-14T00:04:23;100193.34;;;-5.68;74.34
74552;BME280;63025;55.472;38.432;2023-03-14T00:06:49;100179.44;;;-5.56;73.95
74552;BME280;63025;55.472;38.432;2023-03-14T00:09:16;100188.34;;;-5.46;74.07
74552;BME280;63025;55.472;38.432;2023-03-14T00:11:42;100173.47;;;-5.33;74.17
74552;BME280;63025;55.472;38.432;2023-03-14T00:14:08;100168.53;;;-5.25;73.74
74552;BME280;63025;55.472;38.432;2023-03-14T00:16:34;100161.91;;;-5.18;73.97
74552;BME280;63025;55.472;38.432;2023-03-14T00:18:59;100157.94;;;-5.10;72.80
74552;BME280;63025;55.472;38.432;2023-03-14T00:21:25;100156.88;;;-5.08;73.66
74552;BME280;63025;55.472;38.432;2023-03-14T00:23:51;100145.88;;;-5.00;73.52
74552;BME280;63025;55.472;38.432;2023-03-14T00:26:19;100139.47;;;-4.96;72.77
74552;BME280;63025;55.472;38.432;2023-03-14T00:28:46;100125.53;;;-4.97;73.21
74552;BME280;63025;55.472;38.432;2023-03-14T00:31:14;100129.28;;;-4.88;73.00
74552;BME280;63025;55.472;38.432;2023-03-14T00:33:41;100123.06;;;-4.87;72.32
74552;BME280;63025;55.472;38.432;2023-03-14T00:36:10;100127.28;;;-4.85;73.00
74552;BME280;63025;55.472;38.432;2023-03-14T00:38:37;100119.94;;;-4.79;72.99
74552;BME280;63025;55.472;38.432;2023-03-14T00:41:09;100110.88;;;-4.75;72.58
74552;BME280;63025;55.472;38.432;2023-03-14T00:43:36;100109.63;;;-4.70;72.86
74552;BME280;63025;55.472;38.432;2023-03-14T00:46:02;100108.56;;;-4.67;71.97
74552;BME280;63025;55.472;38.432;2023-03-14T00:48:28;100102.03;;;-4.62;72.37
74552;BME280;63025;55.472;38.432;2023-03-14T00:50:54;100103.97;;;-4.53;71.62
74552;BME280;63025;55.472;38.432;2023-03-14T00:53:20;100096.63;;;-4.48;72.55
74552;BME280;63025;55.472;38.432;2023-03-14T00:55:46;100100.56;;;-4.42;72.07
74552;BME280;63025;55.472;38.432;2023-03-14T00:58:13;100093.75;;;-4.45;71.47
74552;BME280;63025;55.472;38.432;2023-03-14T01:00:40;100096.66;;;-4.36;71.62
74552;BME280;63025;55.472;38.432;2023-03-14T01:03:07;100096.94;;;-4.28;72.28
74552;BME280;63025;55.472;38.432;2023-03-14T01:05:34;100086.06;;;-4.24;72.21
74552;BME280;63025;55.472;38.432;2023-03-14T01:08:00;100088.59;;;-4.22;71.90
74552;BME280;63025;55.472;38.432;2023-03-14T01:10:26;100091.47;;;-4.14;71.71
74552;BME280;63025;55.472;38.432;2023-03-14T01:12:52;100095.31;;;-4.07;71.93
74552;BME280;63025;55.472;38.432;2023-03-14T01:15:19;100086.97;;;-4.01;71.75
74552;BME280;63025;55.472;38.432;2023-03-14T01:17:44;100095.22;;;-3.94;71.88
74552;BME280;63025;55.472;38.432;2023-03-14T01:20:12;100096.91;;;-3.82;72.27
74552;BME280;63025;55.472;38.432;2023-03-14T01:22:39;100087.03;;;-3.79;71.66
74552;BME280;63025;55.472;38.432;2023-03-14T01:25:07;100082.97;;;-3.72;71.74
74552;BME280;63025;55.472;38.432;2023-03-14T01:27:33;100072.00;;;-3.65;72.17
74552;BME280;63025;55.472;38.432;2023-03-14T01:29:59;100072.38;;;-3.59;71.27
74552;BME280;63025;55.472;38.432;2023-03-14T01:32:25;100085.16;;;-3.54;71.38
74552;BME280;63025;55.472;38.432;2023-03-14T01:34:52;100082.75;;;-3.46;71.17
74552;BME280;63025;55.472;38.432;2023-03-14T01:37:18;100073.94;;;-3.45;71.97
74552;BME280;63025;55.472;38.432;2023-03-14T01:39:46;100067.84;;;-3.35;71.95
74552;BME280;63025;55.472;38.432;2023-03-14T01:42:12;100075.44;;;-3.32;71.84
74552;BME280;63025;55.472;38.432;2023-03-14T01:44:52;100064.72;;;-3.28;72.30
74552;BME280;63025;55.472;38.432;2023-03-14T01:47:18;100071.75;;;-3.18;72.42
74552;BME280;63025;55.472;38.432;2023-03-14T01:49:53;100077.72;;;-3.16;72.15
74552;BME280;63025;55.472;38.432;2023-03-14T01:54:55;100048.69;;;-3.03;72.63
74552;BME280;63025;55.472;38.432;2023-03-14T01:57:28;100028.00;;;-3.08;73.21
74552;BME280;63025;55.472;38.432;2023-03-14T01:59:58;100020.13;;;-3.08;73.70
74552;BME280;63025;55.472;38.432;2023-03-14T02:02:26;100006.53;;;-3.13;74.53
74552;BME280;63025;55.472;38.432;2023-03-14T02:04:54;100010.22;;;-3.15;74.53
74552;BME280;63025;55.472;38.432;2023-03-14T02:07:33;100025.13;;;-3.05;75.62
74552;BME280;63025;55.472;38.432;2023-03-14T02:10:09;100011.38;;;-2.97;75.16
74552;BME280;63025;55.472;38.432;2023-03-14T02:12:36;100005.28;;;-2.98;75.88
74552;BME280;63025;55.472;38.432;2023-03-14T02:15:28;99990.81;;;-2.92;76.63
74552;BME280;63025;55.472;38.432;2023-03-14T02:18:10;99978.00;;;-2.85;76.66
74552;BME280;63025;55.472;38.432;2023-03-14T02:23:23;99983.00;;;-2.82;77.36
74552;BME280;63025;55.472;38.432;2023-03-14T02:26:08;99986.50;;;-2.93;78.21
74552;BME280;63025;55.472;38.432;2023-03-14T02:28:35;99978.47;;;-2.80;78.78
74552;BME280;63025;55.472;38.432;2023-03-14T02:31:02;99972.22;;;-2.79;78.42
74552;BME280;63025;55.472;38.432;2023-03-14T02:33:31;99967.94;;;-2.80;79.31
74552;BME280;63025;55.472;38.432;2023-03-14T02:36:02;99975.31;;;-2.74;78.76
74552;BME280;63025;55.472;38.432;2023-03-14T02:40:58;99960.44;;;-2.64;79.27
74552;BME280;63025;55.472;38.432;2023-03-14T02:43:25;99956.84;;;-2.63;79.10
74552;BME280;63025;55.472;38.432;2023-03-14T02:45:57;99935.69;;;-2.62;79.19
74552;BME280;63025;55.472;38.432;2023-03-14T02:48:35;99926.13;;;-2.63;79.29
74552;BME280;63025;55.472;38.432;2023-03-14T02:51:04;99933.41;;;-2.66;79.56
74552;BME280;63025;55.472;38.432;2023-03-14T02:53:33;99926.00;;;-2.61;80.11
74552;BME280;63025;55.472;38.432;2023-03-14T02:56:05;99921.16;;;-2.56;79.94
74552;BME280;63025;55.472;38.432;2023-03-14T02:58:33;99919.13;;;-2.52;80.42
74552;BME280;63025;55.472;38.432;2023-03-14T03:01:07;99912.25;;;-2.44;79.92
74552;BME280;63025;55.472;38.432;2023-03-14T03:03:33;99885.34;;;-2.47;80.56
74552;BME280;63025;55.472;38.432;2023-03-14T03:05:59;99890.25;;;-2.43;81.05
74552;BME280;63025;55.472;38.432;2023-03-14T03:08:26;99869.81;;;-2.30;80.94
74552;BME280;63025;55.472;38.432;2023-03-14T03:10:53;99858.75;;;-2.24;81.02
74552;BME280;63025;55.472;38.432;2023-03-14T03:13:19;99859.63;;;-2.13;81.41
74552;BME280;63025;55.472;38.432;2023-03-14T03:15:49;99858.94;;;-2.06;81.44
74552;BME280;63025;55.472;38.432;2023-03-14T03:18:17;99854.94;;;-2.00;81.99
74552;BME280;63025;55.472;38.432;2023-03-14T03:20:43;99860.25;;;-1.91;82.20
74552;BME280;63025;55.472;38.432;2023-03-14T03:23:09;99861.09;;;-1.90;82.63
74552;BME280;63025;55.472;38.432;2023-03-14T03:25:37;99862.03;;;-1.91;83.16
74552;BME280;63025;55.472;38.432;2023-03-14T03:28:04;99872.03;;;-1.85;82.72
74552;BME280;63025;55.472;38.432;2023-03-14T03:30:38;99876.31;;;-1.84;83.42
74552;BME280;63025;55.472;38.432;2023-03-14T03:33:04;99878.97;;;-1.84;83.26
74552;BME280;63025;55.472;38.432;2023-03-14T03:35:30;99880.63;;;-1.83;83.42
74552;BME280;63025;55.472;38.432;2023-03-14T03:37:56;99865.13;;;-1.76;83.49
74552;BME280;63025;55.472;38.432;2023-03-14T03:40:22;99835.59;;;-1.80;83.71
74552;BME280;63025;55.472;38.432;2023-03-14T03:42:48;99845.03;;;-1.77;83.90
74552;BME280;63025;55.472;38.432;2023-03-14T03:45:15;99842.41;;;-1.77;83.78
74552;BME280;63025;55.472;38.432;2023-03-14T03:47:49;99825.06;;;-1.70;83.96
74552;BME280;63025;55.472;38.432;2023-03-14T03:50:15;99823.16;;;-1.68;83.91
74552;BME280;63025;55.472;38.432;2023-03-14T03:52:41;99827.44;;;-1.67;83.89
74552;BME280;63025;55.472;38.432;2023-03-14T03:55:07;99824.25;;;-1.61;83.92
74552;BME280;63025;55.472;38.432;2023-03-14T03:57:33;99822.59;;;-1.53;83.76
74552;BME280;63025;55.472;38.432;2023-03-14T03:59:59;99815.13;;;-1.48;83.88
74552;BME280;63025;55.472;38.432;2023-03-14T04:02:25;99807.59;;;-1.42;83.85
74552;BME280;63025;55.472;38.432;2023-03-14T04:04:51;99799.56;;;-1.41;84.03
74552;BME280;63025;55.472;38.432;2023-03-14T04:07:17;99795.41;;;-1.34;84.05
74552;BME280;63025;55.472;38.432;2023-03-14T04:09:43;99791.41;;;-1.38;84.06
74552;BME280;63025;55.472;38.432;2023-03-14T04:12:39;99785.41;;;-1.30;84.18
74552;BME280;63025;55.472;38.432;2023-03-14T04:15:11;99790.13;;;-1.24;83.89
74552;BME280;63025;55.472;38.432;2023-03-14T04:17:41;99779.16;;;-1.20;84.08
74552;BME280;63025;55.472;38.432;2023-03-14T04:20:08;99774.97;;;-1.13;83.63
74552;BME280;63025;55.472;38.432;2023-03-14T04:22:37;99785.81;;;-1.06;83.55
74552;BME280;63025;55.472;38.432;2023-03-14T04:25:03;99778.72;;;-0.96;83.65
74552;BME280;63025;55.472;38.432;2023-03-14T04:27:33;99782.44;;;-0.89;83.19
74552;BME280;63025;55.472;38.432;2023-03-14T04:30:00;99791.16;;;-0.88;82.85
74552;BME280;63025;55.472;38.432;2023-03-14T04:32:46;99791.84;;;-0.77;83.21
74552;BME280;63025;55.472;38.432;2023-03-14T04:35:13;99788.94;;;-0.73;82.85
74552;BME280;63025;55.472;38.432;2023-03-14T04:37:39;99781.13;;;-0.65;82.82
74552;BME280;63025;55.472;38.432;2023-03-14T04:40:09;99776.06;;;-0.59;82.77
74552;BME280;63025;55.472;38.432;2023-03-14T04:42:37;99768.44;;;-0.52;82.91
74552;BME280;63025;55.472;38.432;2023-03-14T04:45:05;99765.34;;;-0.48;82.40
74552;BME280;63025;55.472;38.432;2023-03-14T04:47:31;99768.22;;;-0.41;81.97
74552;BME280;63025;55.472;38.432;2023-03-14T04:49:58;99757.63;;;-0.31;81.56
74552;BME280;63025;55.472;38.432;2023-03-14T04:52:25;99750.31;;;-0.20;81.95
74552;BME280;63025;55.472;38.432;2023-03-14T04:54:51;99727.25;;;-0.18;81.74
74552;BME280;63025;55.472;38.432;2023-03-14T04:57:19;99729.97;;;-0.10;81.31
74552;BME280;63025;55.472;38.432;2023-03-14T04:59:46;99726.59;;;-0.02;80.60
74552;BME280;63025;55.472;38.432;2023-03-14T05:02:44;99714.97;;;0.09;80.21
74552;BME280;63025;55.472;38.432;2023-03-14T05:05:19;99724.56;;;0.10;79.95
74552;BME280;63025;55.472;38.432;2023-03-14T05:08:11;99710.75;;;0.16;79.97
74552;BME280;63025;55.472;38.432;2023-03-14T05:11:05;99698.72;;;0.21;78.96
74552;BME280;63025;55.472;38.432;2023-03-14T05:13:42;99720.09;;;0.28;78.91
74552;BME280;63025;55.472;38.432;2023-03-14T05:16:30;99714.19;;;0.34;78.69
74552;BME280;63025;55.472;38.432;2023-03-14T05:19:19;99710.34;;;0.46;78.46
74552;BME280;63025;55.472;38.432;2023-03-14T05:22:06;99707.75;;;0.54;77.99
74552;BME280;63025;55.472;38.432;2023-03-14T05:24:50;99701.53;;;0.63;77.54
74552;BME280;63025;55.472;38.432;2023-03-14T05:27:15;99704.56;;;0.68;76.23
74552;BME280;63025;55.472;38.432;2023-03-14T05:30:05;99713.69;;;0.74;76.15
74552;BME280;63025;55.472;38.432;2023-03-14T05:32:36;99707.66;;;0.82;75.32
74552;BME280;63025;55.472;38.432;2023-03-14T05:35:29;99690.16;;;0.89;75.07
74552;BME280;63025;55.472;38.432;2023-03-14T05:37:55;99678.31;;;1.01;74.66
74552;BME280;63025;55.472;38.432;2023-03-14T05:40:21;99671.06;;;1.03;74.05
74552;BME280;63025;55.472;38.432;2023-03-14T05:42:58;99672.75;;;1.12;73.88
74552;BME280;63025;55.472;38.432;2023-03-14T05:45:43;99681.03;;;1.17;73.38
74552;BME280;63025;55.472;38.432;2023-03-14T05:48:35;99676.94;;;1.23;73.15
74552;BME280;63025;55.472;38.432;2023-03-14T05:51:36;99677.13;;;1.29;72.89
74552;BME280;63025;55.472;38.432;2023-03-14T05:54:24;99685.75;;;1.31;72.37
74552;BME280;63025;55.472;38.432;2023-03-14T05:57:06;99673.34;;;1.32;72.27
74552;BME280;63025;55.472;38.432;2023-03-14T05:59:58;99681.13;;;1.33;71.98
74552;BME280;63025;55.472;38.432;2023-03-14T06:02:42;99679.50;;;1.40;72.17
74552;BME280;63025;55.472;38.432;2023-03-14T06:05:18;99669.06;;;1.47;72.08
74552;BME280;63025;55.472;38.432;2023-03-14T06:07:45;99677.53;;;1.42;71.58
74552;BME280;63025;55.472;38.432;2023-03-14T06:10:11;99666.59;;;1.45;71.51
74552;BME280;63025;55.472;38.432;2023-03-14T06:12:38;99666.28;;;1.57;71.26
74552;BME280;63025;55.472;38.432;2023-03-14T06:15:04;99662.34;;;1.69;71.34
74552;BME280;63025;55.472;38.432;2023-03-14T06:17:31;99658.41;;;1.81;70.73
74552;BME280;63025;55.472;38.432;2023-03-14T06:20:05;99674.69;;;1.94;71.08
74552;BME280;63025;55.472;38.432;2023-03-14T06:22:31;99674.00;;;2.00;69.09
74552;BME280;63025;55.472;38.432;2023-03-14T06:24:56;99684.63;;;2.08;69.44
74552;BME280;63025;55.472;38.432;2023-03-14T06:27:24;99697.75;;;2.18;69.82
74552;BME280;63025;55.472;38.432;2023-03-14T06:29:53;99698.06;;;2.23;69.29
74552;BME280;63025;55.472;38.432;2023-03-14T06:32:19;99688.97;;;2.34;68.58
74552;BME280;63025;55.472;38.432;2023-03-14T06:34:48;99695.25;;;2.41;68.31
74552;BME280;63025;55.472;38.432;2023-03-14T06:37:14;99704.03;;;2.41;67.43
74552;BME280;63025;55.472;38.432;2023-03-14T06:39:40;99694.25;;;2.50;67.67
74552;BME280;63025;55.472;38.432;2023-03-14T06:42:14;99685.47;;;2.57;67.17
74552;BME280;63025;55.472;38.432;2023-03-14T06:44:41;99705.34;;;2.62;66.66
74552;BME280;63025;55.472;38.432;2023-03-14T06:47:07;99705.69;;;2.67;66.71
74552;BME280;63025;55.472;38.432;2023-03-14T06:49:34;99684.47;;;2.67;66.18
74552;BME280;63025;55.472;38.432;2023-03-14T06:52:01;99676.31;;;2.76;66.76
74552;BME280;63025;55.472;38.432;2023-03-14T06:54:29;99672.31;;;2.80;66.59
74552;BME280;63025;55.472;38.432;2023-03-14T06:56:55;99664.88;;;2.84;65.99
74552;BME280;63025;55.472;38.432;2023-03-14T06:59:21;99672.00;;;2.83;66.30
74552;BME280;63025;55.472;38.432;2023-03-14T07:01:48;99657.56;;;2.86;66.42
74552;BME280;63025;55.472;38.432;2023-03-14T07:04:17;99663.38;;;2.89;66.42
74552;BME280;63025;55.472;38.432;2023-03-14T07:06:46;99663.00;;;2.92;66.03
74552;BME280;63025;55.472;38.432;2023-03-14T07:09:14;99661.03;;;2.94;65.98
74552;BME280;63025;55.472;38.432;2023-03-14T07:11:46;99654.38;;;2.99;65.40
74552;BME280;63025;55.472;38.432;2023-03-14T07:14:12;99656.69;;;3.02;66.22
74552;BME280;63025;55.472;38.432;2023-03-14T07:16:38;99636.94;;;3.04;65.65
74552;BME280;63025;55.472;38.432;2023-03-14T07:19:06;99644.75;;;3.06;65.73
74552;BME280;63025;55.472;38.432;2023-03-14T07:21:32;99645.06;;;3.11;65.60
74552;BME280;63025;55.472;38.432;2023-03-14T07:24:03;99643.53;;;3.16;65.31
74552;BME280;63025;55.472;38.432;2023-03-14T07:26:31;99654.31;;;3.15;64.91
74552;BME280;63025;55.472;38.432;2023-03-14T07:28:57;99645.69;;;3.21;64.93
74552;BME280;63025;55.472;38.432;2023-03-14T07:31:22;99638.03;;;3.26;64.25
74552;BME280;63025;55.472;38.432;2023-03-14T07:33:49;99630.34;;;3.39;64.92
74552;BME280;63025;55.472;38.432;2023-03-14T07:36:15;99627.13;;;3.52;64.61
74552;BME280;63025;55.472;38.432;2023-03-14T07:38:43;99630.84;;;3.65;64.21
74552;BME280;63025;55.472;38.432;2023-03-14T07:41:30;99626.28;;;3.74;63.27
74552;BME280;63025;55.472;38.432;2023-03-14T07:44:14;99624.56;;;3.89;62.83
74552;BME280;63025;55.472;38.432;2023-03-14T07:46:40;99636.94;;;3.97;62.71
74552;BME280;63025;55.472;38.432;2023-03-14T07:49:06;99630.81;;;3.96;62.42
74552;BME280;63025;55.472;38.432;2023-03-14T07:51:32;99620.31;;;4.03;62.57
74552;BME280;63025;55.472;38.432;2023-03-14T07:53:58;99614.59;;;4.06;62.31
74552;BME280;63025;55.472;38.432;2023-03-14T07:56:23;99622.41;;;4.07;62.00
74552;BME280;63025;55.472;38.432;2023-03-14T07:58:49;99635.59;;;4.24;61.68
74552;BME280;63025;55.472;38.432;2023-03-14T08:01:15;99636.09;;;4.42;61.40
74552;BME280;63025;55.472;38.432;2023-03-14T08:03:41;99636.94;;;4.42;60.82
74552;BME280;63025;55.472;38.432;2023-03-14T08:06:07;99636.84;;;4.51;60.75
74552;BME280;63025;55.472;38.432;2023-03-14T08:08:32;99636.06;;;4.65;60.33
74552;BME280;63025;55.472;38.432;2023-03-14T08:11:06;99638.63;;;4.73;59.75
74552;BME280;63025;55.472;38.432;2023-03-14T08:13:35;99647.06;;;4.62;59.67
74552;BME280;63025;55.472;38.432;2023-03-14T08:16:01;99634.22;;;4.80;59.74
74552;BME280;63025;55.472;38.432;2023-03-14T08:18:26;99629.84;;;5.02;59.58
74552;BME280;63025;55.472;38.432;2023-03-14T08:20:55;99636.28;;;5.07;59.03
74552;BME280;63025;55.472;38.432;2023-03-14T08:23:20;99646.44;;;4.89;58.69
74552;BME280;63025;55.472;38.432;2023-03-14T08:25:48;99642.41;;;4.93;58.74
74552;BME280;63025;55.472;38.432;2023-03-14T08:28:15;99648.03;;;4.98;58.75
74552;BME280;63025;55.472;38.432;2023-03-14T08:30:41;99644.34;;;4.99;58.59
74552;BME280;63025;55.472;38.432;2023-03-14T08:33:07;99638.38;;;5.12;58.51
74552;BME280;63025;55.472;38.432;2023-03-14T08:35:32;99646.47;;;5.19;58.48
74552;BME280;63025;55.472;38.432;2023-03-14T08:37:58;99643.81;;;5.19;58.27
74552;BME280;63025;55.472;38.432;2023-03-14T08:40:24;99659.25;;;5.08;57.56
74552;BME280;63025;55.472;38.432;2023-03-14T08:42:50;99651.97;;;5.02;58.03
74552;BME280;63025;55.472;38.432;2023-03-14T08:45:16;99663.91;;;5.06;57.57
74552;BME280;63025;55.472;38.432;2023-03-14T08:47:43;99645.28;;;5.06;57.28
74552;BME280;63025;55.472;38.432;2023-03-14T08:50:11;99654.25;;;5.20;57.49
74552;BME280;63025;55.472;38.432;2023-03-14T08:52:36;99639.75;;;5.23;57.29
74552;BME280;63025;55.472;38.432;2023-03-14T08:55:08;99641.41;;;5.24;57.32
74552;BME280;63025;55.472;38.432;2023-03-14T08:57:34;99634.13;;;5.32;57.00
74552;BME280;63025;55.472;38.432;2023-03-14T09:00:00;99655.09;;;5.35;56.96
74552;BME280;63025;55.472;38.432;2023-03-14T09:02:26;99641.69;;;5.29;56.57
74552;BME280;63025;55.472;38.432;2023-03-14T09:04:52;99657.47;;;5.30;56.94
74552;BME280;63025;55.472;38.432;2023-03-14T09:07:19;99649.56;;;5.37;56.78
74552;BME280;63025;55.472;38.432;2023-03-14T09:09:45;99646.50;;;5.40;56.52
74552;BME280;63025;55.472;38.432;2023-03-14T09:12:11;99640.09;;;5.49;56.36
74552;BME280;63025;55.472;38.432;2023-03-14T09:14:37;99634.66;;;5.57;56.37
74552;BME280;63025;55.472;38.432;2023-03-14T09:17:03;99627.53;;;5.64;55.99
74552;BME280;63025;55.472;38.432;2023-03-14T09:19:30;99648.22;;;5.62;56.05
74552;BME280;63025;55.472;38.432;2023-03-14T09:21:56;99651.72;;;5.63;55.39
74552;BME280;63025;55.472;38.432;2023-03-14T09:24:21;99650.16;;;5.68;55.63
74552;BME280;63025;55.472;38.432;2023-03-14T09:26:48;99648.66;;;5.80;55.23
74552;BME280;63025;55.472;38.432;2023-03-14T09:29:13;99654.06;;;5.87;55.16
74552;BME280;63025;55.472;38.432;2023-03-14T09:31:39;99644.13;;;5.96;54.84
74552;BME280;63025;55.472;38.432;2023-03-14T09:34:05;99638.59;;;5.97;54.53
74552;BME280;63025;55.472;38.432;2023-03-14T09:36:31;99638.75;;;6.10;54.41
74552;BME280;63025;55.472;38.432;2023-03-14T09:38:57;99646.94;;;6.30;54.14
74552;BME280;63025;55.472;38.432;2023-03-14T09:41:32;99636.81;;;6.25;54.16
74552;BME280;63025;55.472;38.432;2023-03-14T09:44:05;99641.78;;;6.29;53.63
74552;BME280;63025;55.472;38.432;2023-03-14T09:46:34;99648.28;;;6.19;53.74
74552;BME280;63025;55.472;38.432;2023-03-14T09:49:01;99649.78;;;6.29;53.63
74552;BME280;63025;55.472;38.432;2023-03-14T09:51:27;99651.19;;;6.24;53.76
74552;BME280;63025;55.472;38.432;2023-03-14T09:53:53;99650.63;;;6.08;53.58
74552;BME280;63025;55.472;38.432;2023-03-14T09:56:20;99648.50;;;6.03;53.84
74552;BME280;63025;55.472;38.432;2023-03-14T09:59:03;99646.25;;;6.00;54.28
74552;BME280;63025;55.472;38.432;2023-03-14T10:01:32;99643.63;;;6.07;53.99
74552;BME280;63025;55.472;38.432;2023-03-14T10:04:21;99646.28;;;6.07;53.86
74552;BME280;63025;55.472;38.432;2023-03-14T10:06:48;99651.91;;;6.12;53.93
74552;BME280;63025;55.472;38.432;2023-03-14T10:09:20;99644.50;;;6.14;53.73
74552;BME280;63025;55.472;38.432;2023-03-14T10:11:57;99648.50;;;6.24;53.90
74552;BME280;63025;55.472;38.432;2023-03-14T10:14:36;99639.94;;;6.29;53.41
74552;BME280;63025;55.472;38.432;2023-03-14T10:17:08;99648.50;;;6.46;53.71
74552;BME280;63025;55.472;38.432;2023-03-14T10:19:36;99650.63;;;6.57;53.44
74552;BME280;63025;55.472;38.432;2023-03-14T10:22:04;99649.28;;;6.68;52.93
74552;BME280;63025;55.472;38.432;2023-03-14T10:24:33;99653.66;;;6.75;52.88
74552;BME280;63025;55.472;38.432;2023-03-14T10:27:04;99649.91;;;6.70;52.73
74552;BME280;63025;55.472;38.432;2023-03-14T10:29:32;99649.25;;;6.61;52.78
74552;BME280;63025;55.472;38.432;2023-03-14T10:34:37;99634.53;;;6.72;52.61
74552;BME280;63025;55.472;38.432;2023-03-14T10:37:07;99629.69;;;6.82;52.38
74552;BME280;63025;55.472;38.432;2023-03-14T10:42:25;99615.59;;;6.94;51.96
74552;BME280;63025;55.472;38.432;2023-03-14T10:44:58;99615.25;;;7.11;52.11
74552;BME280;63025;55.472;38.432;2023-03-14T10:47:27;99617.34;;;7.15;51.58
74552;BME280;63025;55.472;38.432;2023-03-14T10:49:54;99624.34;;;7.16;51.91
74552;BME280;63025;55.472;38.432;2023-03-14T10:54:54;99611.53;;;7.05;52.29
74552;BME280;63025;55.472;38.432;2023-03-14T10:57:20;99607.50;;;6.88;52.25
74552;BME280;63025;55.472;38.432;2023-03-14T10:59:46;99597.91;;;6.93;52.48
74552;BME280;63025;55.472;38.432;2023-03-14T11:07:41;99608.53;;;6.87;51.88
74552;BME280;63025;55.472;38.432;2023-03-14T11:10:26;99606.50;;;6.89;51.65
74552;BME280;63025;55.472;38.432;2023-03-14T11:13:18;99609.25;;;7.02;51.58
74552;BME280;63025;55.472;38.432;2023-03-14T11:21:46;99589.22;;;7.26;51.41
74552;BME280;63025;55.472;38.432;2023-03-14T11:25:11;99598.97;;;7.47;51.05
74552;BME280;63025;55.472;38.432;2023-03-14T11:27:26;99598.16;;;7.53;50.77
74552;BME280;63025;55.472;38.432;2023-03-14T11:30:18;99599.75;;;7.34;50.64
74552;BME280;63025;55.472;38.432;2023-03-14T11:35:29;99603.81;;;7.23;51.06
74552;BME280;63025;55.472;38.432;2023-03-14T11:38:07;99595.63;;;7.31;50.55
74552;BME280;63025;55.472;38.432;2023-03-14T11:40:36;99607.44;;;7.09;50.65
74552;BME280;63025;55.472;38.432;2023-03-14T11:45:37;99624.34;;;7.16;50.93
74552;BME280;63025;55.472;38.432;2023-03-14T11:51:11;99632.91;;;7.05;50.51
74552;BME280;63025;55.472;38.432;2023-03-14T11:53:53;99633.88;;;6.97;50.77
74552;BME280;63025;55.472;38.432;2023-03-14T11:56:25;99644.69;;;6.83;50.76
74552;BME280;63025;55.472;38.432;2023-03-14T11:59:21;99634.47;;;6.65;51.20
74552;BME280;63025;55.472;38.432;2023-03-14T12:01:53;99638.59;;;6.68;51.56
74552;BME280;63025;55.472;38.432;2023-03-14T12:04:49;99628.41;;;6.78;51.16
74552;BME280;63025;55.472;38.432;2023-03-14T12:07:43;99634.69;;;6.63;51.22
74552;BME280;63025;55.472;38.432;2023-03-14T12:10:18;99628.06;;;6.59;51.59
74552;BME280;63025;55.472;38.432;2023-03-14T12:12:44;99641.56;;;6.51;51.53
74552;BME280;63025;55.472;38.432;2023-03-14T12:15:19;99648.75;;;6.51;51.71
74552;BME280;63025;55.472;38.432;2023-03-14T12:21:10;99646.91;;;6.51;52.06
74552;BME280;63025;55.472;38.432;2023-03-14T12:23:42;99643.16;;;6.46;51.99
74552;BME280;63025;55.472;38.432;2023-03-14T12:28:39;99656.56;;;6.52;51.84
74552;BME280;63025;55.472;38.432;2023-03-14T12:34:24;99677.53;;;6.34;52.15
74552;BME280;63025;55.472;38.432;2023-03-14T12:39:37;99661.03;;;6.24;52.53
74552;BME280;63025;55.472;38.432;2023-03-14T12:42:11;99663.81;;;6.16;52.70
74552;BME280;63025;55.472;38.432;2023-03-14T12:44:50;99681.84;;;6.14;52.47
74552;BME280;63025;55.472;38.432;2023-03-14T12:49:42;99670.78;;;5.96;52.79
74552;BME280;63025;55.472;38.432;2023-03-14T12:52:15;99662.16;;;5.94;53.11
74552;BME280;63025;55.472;38.432;2023-03-14T13:02:44;99685.91;;;5.74;53.88
74552;BME280;63025;55.472;38.432;2023-03-14T13:05:19;99677.66;;;5.69;54.28
74552;BME280;63025;55.472;38.432;2023-03-14T13:15:38;99681.63;;;5.58;54.71
74552;BME280;63025;55.472;38.432;2023-03-14T13:20:48;99678.25;;;5.49;54.99
74552;BME280;63025;55.472;38.432;2023-03-14T13:23:28;99677.31;;;5.42;55.05
74552;BME280;63025;55.472;38.432;2023-03-14T13:25:55;99675.81;;;5.40;55.37
74552;BME280;63025;55.472;38.432;2023-03-14T13:28:21;99669.22;;;5.36;55.67
74552;BME280;63025;55.472;38.432;2023-03-14T13:30:50;99663.72;;;5.37;55.59
74552;BME280;63025;55.472;38.432;2023-03-14T13:33:19;99667.56;;;5.35;55.74
74552;BME280;63025;55.472;38.432;2023-03-14T13:35:54;99666.94;;;5.33;55.76
74552;BME280;63025;55.472;38.432;2023-03-14T13:38:25;99662.44;;;5.33;56.00
74552;BME280;63025;55.472;38.432;2023-03-14T13:40:54;99667.28;;;5.30;55.95
74552;BME280;63025;55.472;38.432;2023-03-14T13:43:30;99674.03;;;5.26;56.04
74552;BME280;63025;55.472;38.432;2023-03-14T13:46:14;99674.56;;;5.21;56.28
74552;BME280;63025;55.472;38.432;2023-03-14T13:48:50;99660.81;;;5.18;56.25
74552;BME280;63025;55.472;38.432;2023-03-14T13:51:19;99672.47;;;5.16;56.54
74552;BME280;63025;55.472;38.432;2023-03-14T13:53:51;99671.53;;;5.09;56.77
74552;BME280;63025;55.472;38.432;2023-03-14T13:56:18;99663.75;;;5.08;56.89
74552;BME280;63025;55.472;38.432;2023-03-14T13:58:45;99665.28;;;5.02;56.95
74552;BME280;63025;55.472;38.432;2023-03-14T14:03:47;99657.84;;;4.98;57.18
74552;BME280;63025;55.472;38.432;2023-03-14T14:06:32;99663.06;;;4.91;57.79
74552;BME280;63025;55.472;38.432;2023-03-14T14:09:03;99652.59;;;4.90;58.00
74552;BME280;63025;55.472;38.432;2023-03-14T14:11:48;99656.66;;;4.86;58.40
74552;BME280;63025;55.472;38.432;2023-03-14T14:14:19;99656.47;;;4.87;58.56
74552;BME280;63025;55.472;38.432;2023-03-14T14:16:47;99654.34;;;4.83;58.65
74552;BME280;63025;55.472;38.432;2023-03-14T14:19:15;99652.88;;;4.80;58.99
74552;BME280;63025;55.472;38.432;2023-03-14T14:21:43;99660.41;;;4.76;58.91
74552;BME280;63025;55.472;38.432;2023-03-14T14:24:16;99655.91;;;4.77;58.94